createdAt,value
2017-01-15T00:00:23.287Z,5.32
2017-01-15T00:01:23.294Z,5.26
2017-01-15T00:02:23.305Z,5.29
2017-01-15T00:03:23.320Z,5.29
2017-01-15T00:04:23.327Z,5.21
2017-01-15T00:05:23.340Z,5.36
2017-01-15T00:06:23.354Z,5.26
2017-01-15T00:07:23.365Z,5.32
2017-01-15T00:08:23.402Z,5.3
2017-01-15T00:09:23.389Z,5.3
2017-01-15T00:10:23.403Z,5.33
2017-01-15T00:11:23.416Z,5.33
2017-01-15T00:12:23.423Z,5.38
2017-01-15T00:13:23.435Z,5.3
2017-01-15T00:14:23.447Z,5.33
2017-01-15T00:15:23.453Z,5.35
2017-01-15T00:16:23.466Z,5.35
2017-01-15T00:17:23.477Z,5.36
2017-01-15T00:18:23.495Z,5.36
2017-01-15T00:19:23.505Z,5.25
2017-01-15T00:20:23.511Z,5.36
2017-01-15T00:21:23.525Z,5.33
2017-01-15T00:22:23.533Z,5.32
2017-01-15T00:23:23.541Z,5.32
2017-01-15T00:24:23.556Z,5.35
2017-01-15T00:25:23.569Z,5.35
2017-01-15T00:26:23.574Z,5.28
2017-01-15T00:27:23.590Z,5.33
2017-01-15T00:28:23.604Z,5.3
2017-01-15T00:29:23.606Z,5.32
2017-01-15T00:30:23.624Z,5.29
2017-01-15T00:31:23.634Z,5.33
2017-01-15T00:32:23.647Z,5.33
2017-01-15T00:33:23.658Z,5.3
2017-01-15T00:34:23.668Z,5.3
2017-01-15T00:35:23.688Z,5.28
2017-01-15T00:36:23.690Z,5.3
2017-01-15T00:37:23.702Z,5.3
2017-01-15T00:38:23.714Z,5.35
2017-01-15T00:39:23.726Z,5.32
2017-01-15T00:40:23.733Z,5.3
2017-01-15T00:41:23.742Z,5.44
2017-01-15T00:42:23.759Z,5.33
2017-01-15T00:43:23.770Z,5.38
2017-01-15T00:44:23.775Z,5.36
2017-01-15T00:45:23.785Z,5.3
2017-01-15T00:46:23.801Z,5.3
2017-01-15T00:47:23.812Z,5.35
2017-01-15T00:48:23.823Z,5.36
2017-01-15T00:49:23.833Z,5.41
2017-01-15T00:50:23.848Z,5.41
2017-01-15T00:51:23.859Z,5.35
2017-01-15T00:52:23.869Z,5.36
2017-01-15T00:53:23.875Z,5.35
2017-01-15T00:54:23.886Z,5.3
2017-01-15T00:55:23.901Z,5.32
2017-01-15T00:56:23.913Z,5.33
2017-01-15T00:57:23.921Z,5.32
2017-01-15T00:58:23.933Z,5.29
2017-01-15T00:59:23.946Z,5.28
2017-01-15T01:00:23.959Z,5.28
2017-01-15T01:01:23.966Z,5.28
2017-01-15T01:02:23.976Z,5.32
2017-01-15T01:03:23.993Z,5.29
2017-01-15T01:04:24.000Z,5.28
2017-01-15T01:05:24.016Z,5.35
2017-01-15T01:06:24.018Z,5.3
2017-01-15T01:07:24.041Z,5.39
2017-01-15T01:08:24.044Z,5.35
2017-01-15T01:09:24.060Z,5.43
2017-01-15T01:10:24.070Z,5.35
2017-01-15T01:11:24.081Z,5.32
2017-01-15T01:12:24.095Z,5.33
2017-01-15T01:13:24.103Z,5.26
2017-01-15T01:14:24.137Z,5.3
2017-01-15T01:15:24.130Z,5.3
2017-01-15T01:16:24.143Z,5.32
2017-01-15T01:17:24.146Z,5.33
2017-01-15T01:18:24.161Z,5.36
2017-01-15T01:19:24.168Z,5.36
2017-01-15T01:20:24.189Z,5.32
2017-01-15T01:21:24.192Z,5.36
2017-01-15T01:22:24.206Z,5.28
2017-01-15T01:23:24.214Z,5.23
2017-01-15T01:24:24.226Z,5.36
2017-01-15T01:25:24.232Z,5.26
2017-01-15T01:26:24.251Z,5.28
2017-01-15T01:27:24.264Z,5.26
2017-01-15T01:28:24.276Z,5.26
2017-01-15T01:29:24.285Z,5.23
2017-01-15T01:30:24.294Z,5.25
2017-01-15T01:31:24.309Z,5.26
2017-01-15T01:32:24.315Z,5.21
2017-01-15T01:33:24.335Z,5.23
2017-01-15T01:34:24.338Z,5.23
2017-01-15T01:35:24.352Z,5.23
2017-01-15T01:36:24.367Z,5.28
2017-01-15T01:37:24.379Z,5.29
2017-01-15T01:38:24.379Z,5.23
2017-01-15T01:39:24.396Z,5.28
2017-01-15T01:40:24.404Z,5.29
2017-01-15T01:41:24.417Z,5.29
2017-01-15T01:42:24.428Z,5.28
2017-01-15T01:43:24.438Z,5.36
2017-01-15T01:44:24.453Z,5.29
2017-01-15T01:45:24.464Z,5.29
2017-01-15T01:46:24.473Z,5.23
2017-01-15T01:47:24.486Z,5.2
2017-01-15T01:48:24.495Z,5.23
2017-01-15T01:49:24.502Z,5.29
2017-01-15T01:50:24.517Z,5.32
2017-01-15T01:51:24.527Z,5.29
2017-01-15T01:52:24.544Z,5.28
2017-01-15T01:53:24.554Z,5.18
2017-01-15T01:54:24.561Z,5.26
2017-01-15T01:55:24.577Z,5.28
2017-01-15T01:56:24.589Z,5.26
2017-01-15T01:57:24.593Z,5.3
2017-01-15T01:58:24.609Z,5.23
2017-01-15T01:59:24.617Z,5.21
2017-01-15T02:00:24.630Z,5.26
2017-01-15T02:01:24.641Z,5.23
2017-01-15T02:02:24.670Z,5.23
2017-01-15T02:03:24.746Z,5.23
2017-01-15T02:04:24.701Z,5.25
2017-01-15T02:05:24.688Z,5.23
2017-01-15T02:06:24.698Z,5.21
2017-01-15T02:07:24.704Z,5.23
2017-01-15T02:08:24.721Z,5.2
2017-01-15T02:09:24.734Z,5.29
2017-01-15T02:10:24.747Z,5.15
2017-01-15T02:11:24.751Z,5.25
2017-01-15T02:12:24.777Z,5.3
2017-01-15T02:13:24.776Z,5.23
2017-01-15T02:14:24.788Z,5.18
2017-01-15T02:15:24.800Z,5.2
2017-01-15T02:16:24.807Z,5.25
2017-01-15T02:17:24.836Z,5.17
2017-01-15T02:18:24.833Z,5.25
2017-01-15T02:19:24.879Z,5.17
2017-01-15T02:20:24.923Z,5.25
2017-01-15T02:21:24.867Z,5.17
2017-01-15T02:22:24.904Z,5.33
2017-01-15T02:23:24.888Z,5.23
2017-01-15T02:24:24.900Z,5.23
2017-01-15T02:25:24.913Z,5.23
2017-01-15T02:26:24.930Z,5.21
2017-01-15T02:27:24.942Z,5.23
2017-01-15T02:28:24.945Z,5.2
2017-01-15T02:29:24.956Z,5.23
2017-01-15T02:30:24.969Z,5.21
2017-01-15T02:31:24.978Z,5.17
2017-01-15T02:32:24.993Z,5.18
2017-01-15T02:33:25.006Z,5.2
2017-01-15T02:34:25.013Z,5.25
2017-01-15T02:35:25.024Z,5.2
2017-01-15T02:36:25.032Z,5.25
2017-01-15T02:37:25.048Z,5.21
2017-01-15T02:38:25.055Z,5.18
2017-01-15T02:39:25.070Z,5.21
2017-01-15T02:40:25.084Z,5.17
2017-01-15T02:41:25.090Z,5.25
2017-01-15T02:42:25.103Z,5.18
2017-01-15T02:43:25.120Z,5.17
2017-01-15T02:44:25.121Z,5.18
2017-01-15T02:45:25.138Z,5.17
2017-01-15T02:46:25.150Z,5.29
2017-01-15T02:47:25.159Z,5.21
2017-01-15T02:48:25.169Z,5.26
2017-01-15T02:49:25.180Z,5.28
2017-01-15T02:50:25.201Z,5.2
2017-01-15T02:51:25.231Z,5.2
2017-01-15T02:52:25.489Z,5.2
2017-01-15T02:53:25.230Z,5.17
2017-01-15T02:54:25.235Z,5.2
2017-01-15T02:55:25.242Z,5.23
2017-01-15T02:56:25.258Z,5.2
2017-01-15T02:57:25.269Z,5.21
2017-01-15T02:58:25.287Z,5.18
2017-01-15T02:59:25.303Z,5.18
2017-01-15T03:00:25.305Z,5.21
2017-01-15T03:01:25.320Z,5.17
2017-01-15T03:02:25.326Z,5.11
2017-01-15T03:03:25.337Z,5.15
2017-01-15T03:04:25.350Z,5.25
2017-01-15T03:05:25.363Z,5.17
2017-01-15T03:06:25.374Z,5.11
2017-01-15T03:07:25.386Z,5.14
2017-01-15T03:08:25.393Z,5.18
2017-01-15T03:09:25.405Z,5.15
2017-01-15T03:10:25.414Z,5.17
2017-01-15T03:11:25.429Z,5.17
2017-01-15T03:12:25.444Z,5.15
2017-01-15T03:13:25.450Z,5.05
2017-01-15T03:14:25.464Z,5.07
2017-01-15T03:15:25.470Z,5.1
2017-01-15T03:16:25.488Z,5.11
2017-01-15T03:17:25.494Z,5.08
2017-01-15T03:18:25.503Z,5.08
2017-01-15T03:19:25.916Z,5.11
2017-01-15T03:20:25.526Z,5.08
2017-01-15T03:21:25.538Z,5.11
2017-01-15T03:22:25.548Z,5.04
2017-01-15T03:23:25.560Z,5.05
2017-01-15T03:24:25.577Z,5.04
2017-01-15T03:25:25.583Z,5.04
2017-01-15T03:26:25.589Z,4.97
2017-01-15T03:27:25.604Z,5.1
2017-01-15T03:28:25.614Z,5.05
2017-01-15T03:29:25.656Z,5.02
2017-01-15T03:30:25.644Z,5.02
2017-01-15T03:31:25.661Z,5.08
2017-01-15T03:32:25.661Z,5.04
2017-01-15T03:33:25.672Z,4.96
2017-01-15T03:34:25.688Z,5.04
2017-01-15T03:35:25.694Z,5.05
2017-01-15T03:36:25.703Z,5.04
2017-01-15T03:37:25.719Z,5
2017-01-15T03:38:25.722Z,4.99
2017-01-15T03:39:25.741Z,5
2017-01-15T03:40:25.748Z,4.99
2017-01-15T03:41:25.761Z,4.89
2017-01-15T03:42:25.768Z,4.96
2017-01-15T03:43:25.783Z,4.89
2017-01-15T03:44:25.791Z,4.89
2017-01-15T03:45:25.803Z,4.93
2017-01-15T03:46:25.814Z,4.96
2017-01-15T03:47:25.826Z,4.99
2017-01-15T03:48:25.837Z,4.87
2017-01-15T03:49:25.849Z,4.94
2017-01-15T03:50:25.881Z,4.97
2017-01-15T03:51:25.872Z,4.94
2017-01-15T03:52:25.879Z,4.84
2017-01-15T03:53:25.896Z,4.89
2017-01-15T03:54:25.903Z,4.89
2017-01-15T03:55:25.919Z,4.94
2017-01-15T03:56:25.926Z,4.96
2017-01-15T03:57:25.936Z,4.9
2017-01-15T03:58:25.943Z,4.92
2017-01-15T03:59:25.955Z,4.94
2017-01-15T04:00:25.972Z,4.87
2017-01-15T04:01:25.986Z,4.94
2017-01-15T04:02:25.993Z,4.96
2017-01-15T04:03:26.002Z,4.93
2017-01-15T04:04:26.016Z,4.92
2017-01-15T04:05:26.022Z,4.96
2017-01-15T04:06:26.034Z,4.93
2017-01-15T04:07:26.039Z,4.96
2017-01-15T04:08:26.055Z,4.93
2017-01-15T04:09:26.060Z,4.96
2017-01-15T04:10:26.076Z,4.97
2017-01-15T04:11:26.089Z,4.93
2017-01-15T04:12:26.096Z,4.93
2017-01-15T04:13:26.112Z,4.9
2017-01-15T04:14:26.125Z,4.93
2017-01-15T04:15:26.132Z,4.92
2017-01-15T04:16:26.148Z,4.9
2017-01-15T04:17:26.154Z,4.96
2017-01-15T04:18:26.171Z,4.92
2017-01-15T04:19:26.172Z,4.92
2017-01-15T04:20:26.182Z,4.97
2017-01-15T04:21:26.224Z,4.92
2017-01-15T04:22:26.208Z,4.99
2017-01-15T04:23:26.220Z,4.96
2017-01-15T04:24:26.229Z,5.04
2017-01-15T04:25:26.268Z,4.99
2017-01-15T04:26:26.247Z,4.9
2017-01-15T04:27:26.266Z,5.05
2017-01-15T04:28:26.274Z,5.04
2017-01-15T04:29:26.285Z,4.94
2017-01-15T04:30:26.294Z,4.96
2017-01-15T04:31:26.309Z,5.05
2017-01-15T04:32:26.316Z,4.99
2017-01-15T04:33:26.332Z,4.99
2017-01-15T04:34:26.337Z,5.07
2017-01-15T04:35:26.350Z,4.99
2017-01-15T04:36:26.362Z,4.96
2017-01-15T04:37:26.374Z,4.93
2017-01-15T04:38:26.384Z,5.04
2017-01-15T04:39:26.396Z,4.87
2017-01-15T04:40:26.404Z,4.92
2017-01-15T04:41:26.411Z,4.93
2017-01-15T04:42:26.420Z,4.8
2017-01-15T04:43:26.436Z,4.92
2017-01-15T04:44:26.451Z,4.87
2017-01-15T04:45:26.511Z,4.87
2017-01-15T04:46:26.469Z,4.87
2017-01-15T04:47:26.481Z,4.9
2017-01-15T04:48:26.489Z,4.78
2017-01-15T04:49:26.499Z,4.89
2017-01-15T04:50:26.513Z,4.84
2017-01-15T04:51:26.523Z,4.89
2017-01-15T04:52:26.536Z,4.82
2017-01-15T04:53:26.554Z,4.94
2017-01-15T04:54:26.556Z,4.89
2017-01-15T04:55:26.566Z,4.89
2017-01-15T04:56:26.578Z,4.84
2017-01-15T04:57:26.589Z,4.94
2017-01-15T04:58:26.598Z,4.87
2017-01-15T04:59:26.612Z,4.89
2017-01-15T05:00:26.618Z,4.82
2017-01-15T05:01:26.631Z,4.87
2017-01-15T05:02:26.641Z,4.9
2017-01-15T05:03:26.654Z,4.89
2017-01-15T05:04:26.666Z,4.93
2017-01-15T05:05:26.676Z,4.8
2017-01-15T05:06:26.685Z,4.82
2017-01-15T05:07:26.701Z,4.89
2017-01-15T05:08:26.706Z,4.87
2017-01-15T05:09:26.720Z,4.9
2017-01-15T05:10:26.725Z,4.86
2017-01-15T05:11:26.739Z,4.86
2017-01-15T05:12:26.749Z,4.92
2017-01-15T05:13:26.760Z,4.94
2017-01-15T05:14:26.771Z,4.82
2017-01-15T05:15:26.780Z,4.86
2017-01-15T05:16:26.795Z,4.87
2017-01-15T05:17:26.802Z,4.8
2017-01-15T05:18:26.817Z,4.82
2017-01-15T05:19:26.823Z,4.86
2017-01-15T05:20:26.831Z,4.82
2017-01-15T05:21:26.844Z,4.87
2017-01-15T05:22:26.853Z,4.86
2017-01-15T05:23:26.871Z,4.9
2017-01-15T05:24:26.877Z,4.78
2017-01-15T05:25:26.889Z,4.94
2017-01-15T05:26:26.926Z,4.86
2017-01-15T05:27:26.908Z,4.92
2017-01-15T05:28:26.924Z,4.82
2017-01-15T05:29:26.932Z,4.86
2017-01-15T05:30:26.945Z,4.78
2017-01-15T05:31:26.955Z,4.77
2017-01-15T05:32:26.961Z,4.82
2017-01-15T05:33:26.978Z,4.89
2017-01-15T05:34:26.980Z,4.8
2017-01-15T05:35:26.999Z,4.82
2017-01-15T05:36:27.014Z,4.77
2017-01-15T05:37:27.023Z,4.86
2017-01-15T05:38:27.033Z,4.78
2017-01-15T05:39:27.038Z,4.84
2017-01-15T05:40:27.051Z,4.84
2017-01-15T05:41:27.058Z,4.82
2017-01-15T05:42:27.076Z,4.78
2017-01-15T05:43:27.081Z,4.8
2017-01-15T05:44:27.095Z,4.82
2017-01-15T05:45:27.100Z,4.9
2017-01-15T05:46:27.116Z,4.78
2017-01-15T05:47:27.123Z,4.86
2017-01-15T05:48:27.135Z,4.8
2017-01-15T05:49:27.145Z,4.87
2017-01-15T05:50:27.156Z,4.93
2017-01-15T05:51:27.169Z,4.87
2017-01-15T05:52:27.179Z,4.78
2017-01-15T05:53:27.192Z,4.78
2017-01-15T05:54:27.196Z,4.8
2017-01-15T05:55:27.212Z,4.86
2017-01-15T05:56:27.223Z,4.87
2017-01-15T05:57:27.241Z,4.94
2017-01-15T05:58:27.242Z,4.89
2017-01-15T05:59:27.254Z,4.8
2017-01-15T06:00:27.273Z,4.89
2017-01-15T06:01:27.273Z,4.78
2017-01-15T06:02:27.279Z,4.84
2017-01-15T06:03:27.293Z,4.9
2017-01-15T06:04:27.304Z,4.82
2017-01-15T06:05:27.323Z,4.78
2017-01-15T06:06:27.326Z,4.84
2017-01-15T06:07:27.338Z,4.82
2017-01-15T06:08:27.354Z,4.9
2017-01-15T06:09:27.363Z,4.8
2017-01-15T06:10:27.375Z,4.92
2017-01-15T06:11:27.492Z,4.82
2017-01-15T06:12:27.399Z,4.94
2017-01-15T06:13:27.400Z,4.86
2017-01-15T06:14:27.410Z,4.8
2017-01-15T06:15:27.423Z,4.93
2017-01-15T06:16:27.433Z,4.9
2017-01-15T06:17:27.451Z,4.9
2017-01-15T06:18:27.455Z,4.93
2017-01-15T06:19:27.468Z,4.93
2017-01-15T06:20:27.480Z,4.9
2017-01-15T06:21:27.494Z,4.89
2017-01-15T06:22:27.503Z,4.9
2017-01-15T06:23:27.513Z,4.92
2017-01-15T06:24:27.525Z,4.89
2017-01-15T06:25:27.527Z,4.94
2017-01-15T06:26:27.541Z,4.94
2017-01-15T06:27:27.551Z,5
2017-01-15T06:28:27.562Z,4.96
2017-01-15T06:29:27.576Z,5.02
2017-01-15T06:30:27.610Z,4.96
2017-01-15T06:31:27.599Z,4.93
2017-01-15T06:32:27.615Z,4.99
2017-01-15T06:33:27.618Z,4.97
2017-01-15T06:34:27.633Z,4.97
2017-01-15T06:35:27.850Z,4.94
2017-01-15T06:36:27.645Z,4.97
2017-01-15T06:37:27.662Z,5.08
2017-01-15T06:38:27.670Z,5
2017-01-15T06:39:27.796Z,4.89
2017-01-15T06:40:27.699Z,4.96
2017-01-15T06:41:27.711Z,5.04
2017-01-15T06:42:27.725Z,4.89
2017-01-15T06:43:27.729Z,4.93
2017-01-15T06:44:27.763Z,4.94
2017-01-15T06:45:27.741Z,4.9
2017-01-15T06:46:27.762Z,4.99
2017-01-15T06:47:27.775Z,4.94
2017-01-15T06:48:27.784Z,4.9
2017-01-15T06:49:27.788Z,4.84
2017-01-15T06:50:27.800Z,4.9
2017-01-15T06:51:27.815Z,4.89
2017-01-15T06:52:27.823Z,4.8
2017-01-15T06:53:27.831Z,4.9
2017-01-15T06:54:27.850Z,4.86
2017-01-15T06:55:27.859Z,4.82
2017-01-15T06:56:27.868Z,4.9
2017-01-15T06:57:27.997Z,4.78
2017-01-15T06:58:27.887Z,4.87
2017-01-15T06:59:27.902Z,4.9
2017-01-15T07:00:27.934Z,4.9
2017-01-15T07:01:27.918Z,4.89
2017-01-15T07:02:27.927Z,4.8
2017-01-15T07:03:27.946Z,4.9
2017-01-15T07:04:28.004Z,4.94
2017-01-15T07:05:27.958Z,4.9
2017-01-15T07:06:27.980Z,4.99
2017-01-15T07:07:27.986Z,4.92
2017-01-15T07:08:27.987Z,4.93
2017-01-15T07:09:28.009Z,4.96
2017-01-15T07:10:28.013Z,4.94
2017-01-15T07:11:28.062Z,4.94
2017-01-15T07:12:28.052Z,4.99
2017-01-15T07:13:28.052Z,4.87
2017-01-15T07:14:28.059Z,4.99
2017-01-15T07:15:28.070Z,4.99
2017-01-15T07:16:28.079Z,4.96
2017-01-15T07:17:28.091Z,5.04
2017-01-15T07:18:28.108Z,4.99
2017-01-15T07:19:28.113Z,5.04
2017-01-15T07:20:28.126Z,4.99
2017-01-15T07:21:28.291Z,5
2017-01-15T07:22:28.145Z,4.99
2017-01-15T07:23:28.162Z,5.04
2017-01-15T07:24:28.165Z,5.07
2017-01-15T07:25:28.182Z,5.05
2017-01-15T07:26:28.189Z,5.04
2017-01-15T07:27:28.207Z,5.05
2017-01-15T07:28:28.209Z,5.02
2017-01-15T07:29:28.225Z,4.97
2017-01-15T07:30:28.229Z,5.07
2017-01-15T07:31:28.565Z,5
2017-01-15T07:32:28.251Z,5.08
2017-01-15T07:33:28.263Z,5.04
2017-01-15T07:34:28.387Z,5.1
2017-01-15T07:35:28.289Z,5.05
2017-01-15T07:36:28.413Z,4.99
2017-01-15T07:37:28.423Z,5.05
2017-01-15T07:38:28.435Z,5.08
2017-01-15T07:39:28.328Z,5.04
2017-01-15T07:40:28.455Z,5.08
2017-01-15T07:41:28.349Z,5.05
2017-01-15T07:42:28.476Z,5.1
2017-01-15T07:43:28.373Z,4.99
2017-01-15T07:44:28.379Z,5.04
2017-01-15T07:45:28.506Z,5.08
2017-01-15T07:46:28.427Z,5.1
2017-01-15T07:47:28.412Z,5.02
2017-01-15T07:48:28.540Z,5.07
2017-01-15T07:49:28.548Z,5.05
2017-01-15T07:50:28.558Z,5.05
2017-01-15T07:51:28.462Z,5.04
2017-01-15T07:52:28.865Z,5.04
2017-01-15T07:53:28.476Z,5.04
2017-01-15T07:54:28.492Z,5.02
2017-01-15T07:55:28.530Z,5.02
2017-01-15T07:56:28.506Z,5.02
2017-01-15T07:57:28.526Z,4.99
2017-01-15T07:58:28.528Z,5.05
2017-01-15T07:59:28.544Z,5.05
2017-01-15T08:00:28.556Z,5.05
2017-01-15T08:01:28.563Z,5.08
2017-01-15T08:02:28.575Z,5.05
2017-01-15T08:03:28.699Z,5.08
2017-01-15T08:04:28.602Z,5.11
2017-01-15T08:05:28.725Z,5.08
2017-01-15T08:06:28.734Z,5.05
2017-01-15T08:07:28.631Z,5.08
2017-01-15T08:08:28.640Z,5.08
2017-01-15T08:09:28.846Z,5.11
2017-01-15T08:10:28.782Z,5.11
2017-01-15T08:11:28.788Z,5.11
2017-01-15T08:12:28.843Z,5.07
2017-01-15T08:13:28.816Z,5.12
2017-01-15T08:14:28.706Z,5.11
2017-01-15T08:15:28.841Z,5.1
2017-01-15T08:16:28.843Z,5.08
2017-01-15T08:17:28.743Z,5.12
2017-01-15T08:18:28.750Z,5.1
2017-01-15T08:19:28.763Z,5.07
2017-01-15T08:20:28.770Z,5.08
2017-01-15T08:21:28.896Z,4.99
2017-01-15T08:22:28.916Z,5.05
2017-01-15T08:23:28.915Z,5.04
2017-01-15T08:24:28.821Z,5.02
2017-01-15T08:25:28.822Z,5
2017-01-15T08:26:28.847Z,5
2017-01-15T08:27:28.849Z,4.99
2017-01-15T08:28:28.862Z,4.97
2017-01-15T08:29:28.977Z,5
2017-01-15T08:30:28.876Z,5.04
2017-01-15T08:31:28.886Z,4.96
2017-01-15T08:32:29.017Z,4.97
2017-01-15T08:33:28.909Z,5.05
2017-01-15T08:34:28.925Z,4.94
2017-01-15T08:35:28.932Z,5.04
2017-01-15T08:36:28.942Z,5.02
2017-01-15T08:37:28.955Z,5.08
2017-01-15T08:38:28.983Z,5.04
2017-01-15T08:39:28.972Z,5.05
2017-01-15T08:40:28.983Z,5.05
2017-01-15T08:41:29.112Z,5.04
2017-01-15T08:42:29.014Z,5.08
2017-01-15T08:43:29.015Z,5.07
2017-01-15T08:44:29.029Z,5.1
2017-01-15T08:45:29.038Z,5.11
2017-01-15T08:46:29.174Z,5.1
2017-01-15T08:47:29.068Z,5.07
2017-01-15T08:48:29.070Z,5.11
2017-01-15T08:49:29.082Z,5.11
2017-01-15T08:50:29.103Z,5.12
2017-01-15T08:51:29.112Z,5.08
2017-01-15T08:52:29.120Z,5.07
2017-01-15T08:53:29.128Z,5.1
2017-01-15T08:54:29.134Z,5.05
2017-01-15T08:55:29.148Z,5.08
2017-01-15T08:56:29.164Z,5.07
2017-01-15T08:57:29.298Z,5.1
2017-01-15T08:58:29.253Z,5.07
2017-01-15T08:59:29.200Z,5.1
2017-01-15T09:00:29.202Z,5.02
2017-01-15T09:01:29.213Z,5.08
2017-01-15T09:02:29.226Z,5.07
2017-01-15T09:03:29.233Z,5.05
2017-01-15T09:04:29.243Z,5.07
2017-01-15T09:05:29.258Z,5.07
2017-01-15T09:06:29.268Z,5
2017-01-15T09:07:29.402Z,5.07
2017-01-15T09:08:29.410Z,5.08
2017-01-15T09:09:29.301Z,5.07
2017-01-15T09:10:29.306Z,5
2017-01-15T09:11:29.324Z,5
2017-01-15T09:12:29.530Z,5
2017-01-15T09:13:29.350Z,4.99
2017-01-15T09:14:29.467Z,5.02
2017-01-15T09:15:29.491Z,5.08
2017-01-15T09:16:29.379Z,5.04
2017-01-15T09:17:29.384Z,5.02
2017-01-15T09:18:29.514Z,5.07
2017-01-15T09:19:29.412Z,5.08
2017-01-15T09:20:29.419Z,5.07
2017-01-15T09:21:29.431Z,4.97
2017-01-15T09:22:29.554Z,5.07
2017-01-15T09:23:29.570Z,4.97
2017-01-15T09:24:29.588Z,4.99
2017-01-15T09:25:29.617Z,4.99
2017-01-15T09:26:29.607Z,4.94
2017-01-15T09:27:29.646Z,5
2017-01-15T09:28:29.507Z,5.02
2017-01-15T09:29:29.518Z,5.05
2017-01-15T09:30:29.540Z,5.05
2017-01-15T09:31:29.538Z,5.04
2017-01-15T09:32:29.949Z,5.05
2017-01-15T09:33:29.562Z,5.12
2017-01-15T09:34:29.575Z,5.1
2017-01-15T09:35:29.585Z,5.12
2017-01-15T09:36:29.598Z,5.1
2017-01-15T09:37:29.605Z,5.14
2017-01-15T09:38:29.617Z,5.11
2017-01-15T09:39:29.627Z,5.11
2017-01-15T09:40:29.636Z,5.15
2017-01-15T09:41:29.650Z,5.17
2017-01-15T09:42:29.660Z,5.21
2017-01-15T09:43:29.678Z,5.12
2017-01-15T09:44:29.686Z,5.25
2017-01-15T09:45:29.696Z,5.14
2017-01-15T09:46:29.705Z,5.14
2017-01-15T09:47:29.743Z,5.21
2017-01-15T09:48:29.739Z,5.12
2017-01-15T09:49:29.741Z,5.11
2017-01-15T09:50:29.755Z,5.17
2017-01-15T09:51:29.763Z,5.14
2017-01-15T09:52:29.765Z,5.11
2017-01-15T09:53:29.781Z,5.18
2017-01-15T09:54:29.814Z,5.18
2017-01-15T09:55:29.798Z,5.23
2017-01-15T09:56:29.817Z,5.2
2017-01-15T09:57:29.821Z,5.21
2017-01-15T09:58:29.915Z,5.14
2017-01-15T09:59:29.854Z,5.2
2017-01-15T10:00:29.861Z,5.23
2017-01-15T10:01:29.872Z,5.12
2017-01-15T10:02:29.880Z,5.18
2017-01-15T10:03:29.893Z,5.17
2017-01-15T10:04:29.904Z,5.21
2017-01-15T10:05:29.947Z,5.14
2017-01-15T10:06:29.924Z,5.14
2017-01-15T10:07:29.937Z,5.1
2017-01-15T10:08:29.953Z,5.12
2017-01-15T10:09:29.955Z,5.17
2017-01-15T10:10:29.970Z,5.14
2017-01-15T10:11:29.986Z,5.1
2017-01-15T10:12:29.994Z,5.12
2017-01-15T10:13:30.002Z,5.14
2017-01-15T10:14:30.013Z,5.17
2017-01-15T10:15:30.027Z,5.18
2017-01-15T10:16:30.066Z,5.21
2017-01-15T10:17:30.048Z,5.2
2017-01-15T10:18:30.052Z,5.21
2017-01-15T10:19:30.076Z,5.18
2017-01-15T10:20:30.200Z,5.21
2017-01-15T10:21:30.091Z,5.18
2017-01-15T10:22:30.096Z,5.18
2017-01-15T10:23:30.125Z,5.2
2017-01-15T10:24:30.140Z,5.18
2017-01-15T10:25:30.135Z,5.23
2017-01-15T10:26:30.232Z,5.18
2017-01-15T10:27:30.154Z,5.2
2017-01-15T10:28:30.164Z,5.28
2017-01-15T10:29:30.180Z,5.21
2017-01-15T10:30:30.185Z,5.25
2017-01-15T10:31:30.196Z,5.23
2017-01-15T10:32:30.219Z,5.23
2017-01-15T10:33:30.248Z,5.21
2017-01-15T10:34:30.232Z,5.15
2017-01-15T10:35:30.240Z,5.18
2017-01-15T10:36:30.255Z,5.21
2017-01-15T10:37:30.265Z,5.18
2017-01-15T10:38:30.287Z,5.2
2017-01-15T10:39:30.292Z,5.2
2017-01-15T10:40:30.301Z,5.25
2017-01-15T10:41:30.313Z,5.3
2017-01-15T10:42:30.323Z,5.17
2017-01-15T10:43:30.334Z,5.23
2017-01-15T10:44:30.344Z,5.17
2017-01-15T10:45:30.356Z,5.21
2017-01-15T10:46:30.489Z,5.23
2017-01-15T10:47:30.376Z,5.28
2017-01-15T10:48:30.568Z,5.21
2017-01-15T10:49:30.400Z,5.36
2017-01-15T10:50:30.452Z,5.33
2017-01-15T10:51:30.424Z,5.33
2017-01-15T10:52:30.544Z,5.35
2017-01-15T10:53:30.444Z,5.33
2017-01-15T10:54:30.454Z,5.3
2017-01-15T10:55:30.471Z,5.32
2017-01-15T10:56:30.474Z,5.35
2017-01-15T10:57:30.490Z,5.43
2017-01-15T10:58:30.544Z,5.39
2017-01-15T10:59:30.507Z,5.44
2017-01-15T11:00:30.523Z,5.47
2017-01-15T11:01:30.527Z,5.47
2017-01-15T11:02:30.545Z,5.44
2017-01-15T11:03:30.559Z,5.5
2017-01-15T11:04:30.568Z,5.54
2017-01-15T11:05:30.581Z,5.59
2017-01-15T11:06:30.593Z,5.54
2017-01-15T11:07:30.606Z,5.5
2017-01-15T11:08:30.609Z,5.51
2017-01-15T11:09:30.619Z,5.61
2017-01-15T11:10:30.632Z,5.51
2017-01-15T11:11:30.642Z,5.51
2017-01-15T11:12:30.677Z,5.51
2017-01-15T11:13:30.670Z,5.48
2017-01-15T11:14:30.678Z,5.48
2017-01-15T11:15:30.692Z,5.54
2017-01-15T11:16:30.698Z,5.57
2017-01-15T11:17:30.916Z,5.5
2017-01-15T11:18:30.721Z,5.5
2017-01-15T11:19:30.734Z,5.47
2017-01-15T11:20:30.749Z,5.51
2017-01-15T11:21:30.756Z,5.53
2017-01-15T11:22:30.764Z,5.53
2017-01-15T11:23:30.783Z,5.61
2017-01-15T11:24:30.790Z,5.54
2017-01-15T11:25:30.934Z,5.61
2017-01-15T11:26:30.824Z,5.57
2017-01-15T11:27:30.825Z,5.65
2017-01-15T11:28:30.918Z,5.65
2017-01-15T11:29:30.846Z,5.69
2017-01-15T11:30:30.858Z,5.72
2017-01-15T11:31:30.873Z,5.79
2017-01-15T11:32:30.884Z,5.84
2017-01-15T11:33:30.892Z,5.79
2017-01-15T11:34:30.905Z,5.79
2017-01-15T11:35:30.918Z,5.79
2017-01-15T11:36:30.927Z,5.68
2017-01-15T11:37:31.090Z,5.75
2017-01-15T11:38:30.952Z,5.75
2017-01-15T11:39:30.960Z,5.73
2017-01-15T11:40:30.969Z,5.79
2017-01-15T11:41:30.994Z,5.68
2017-01-15T11:42:30.993Z,5.76
2017-01-15T11:43:31.005Z,5.72
2017-01-15T11:44:31.022Z,5.71
2017-01-15T11:45:31.030Z,5.65
2017-01-15T11:46:31.045Z,5.64
2017-01-15T11:47:31.049Z,5.66
2017-01-15T11:48:31.063Z,5.64
2017-01-15T11:49:31.079Z,5.65
2017-01-15T11:50:31.087Z,5.61
2017-01-15T11:51:31.101Z,5.61
2017-01-15T11:52:31.114Z,5.57
2017-01-15T11:53:31.139Z,5.5
2017-01-15T11:54:31.134Z,5.57
2017-01-15T11:55:31.145Z,5.51
2017-01-15T11:56:31.156Z,5.53
2017-01-15T11:57:31.167Z,5.47
2017-01-15T11:58:31.177Z,5.46
2017-01-15T11:59:31.188Z,5.48
2017-01-15T12:00:31.204Z,5.53
2017-01-15T12:01:31.210Z,5.54
2017-01-15T12:02:31.219Z,5.54
2017-01-15T12:03:31.235Z,5.54
2017-01-15T12:04:31.251Z,5.59
2017-01-15T12:05:31.267Z,5.56
2017-01-15T12:06:31.269Z,5.61
2017-01-15T12:07:31.290Z,5.47
2017-01-15T12:08:31.290Z,5.5
2017-01-15T12:09:31.304Z,5.5
2017-01-15T12:10:31.319Z,5.48
2017-01-15T12:11:31.431Z,5.48
2017-01-15T12:12:31.340Z,5.39
2017-01-15T12:13:31.355Z,5.46
2017-01-15T12:14:31.356Z,5.44
2017-01-15T12:15:31.396Z,5.47
2017-01-15T12:16:31.378Z,5.41
2017-01-15T12:17:31.393Z,5.43
2017-01-15T12:18:31.403Z,5.38
2017-01-15T12:19:31.416Z,5.43
2017-01-15T12:20:31.429Z,5.47
2017-01-15T12:21:31.442Z,5.43
2017-01-15T12:22:31.453Z,5.43
2017-01-15T12:23:31.466Z,5.48
2017-01-15T12:24:31.479Z,5.5
2017-01-15T12:25:31.485Z,5.48
2017-01-15T12:26:31.491Z,5.47
2017-01-15T12:27:31.510Z,5.48
2017-01-15T12:28:31.614Z,5.48
2017-01-15T12:29:31.528Z,5.47
2017-01-15T12:30:31.543Z,5.47
2017-01-15T12:31:31.555Z,5.46
2017-01-15T12:32:31.566Z,5.47
2017-01-15T12:33:31.576Z,5.41
2017-01-15T12:34:31.607Z,5.46
2017-01-15T12:35:31.601Z,5.43
2017-01-15T12:36:31.626Z,5.46
2017-01-15T12:37:31.633Z,5.43
2017-01-15T12:38:31.642Z,5.48
2017-01-15T12:39:31.648Z,5.53
2017-01-15T12:40:31.685Z,5.46
2017-01-15T12:41:31.669Z,5.48
2017-01-15T12:42:31.680Z,5.48
2017-01-15T12:43:31.691Z,5.48
2017-01-15T12:44:31.702Z,5.48
2017-01-15T12:45:31.710Z,5.48
2017-01-15T12:46:31.725Z,5.46
2017-01-15T12:47:31.740Z,5.48
2017-01-15T12:48:31.748Z,5.41
2017-01-15T12:49:31.757Z,5.47
2017-01-15T12:50:31.772Z,5.39
2017-01-15T12:51:31.783Z,5.39
2017-01-15T12:52:31.796Z,5.38
2017-01-15T12:53:31.804Z,5.43
2017-01-15T12:54:31.821Z,5.43
2017-01-15T12:55:31.827Z,5.43
2017-01-15T12:56:31.843Z,5.36
2017-01-15T12:57:31.851Z,5.51
2017-01-15T12:58:31.860Z,5.43
2017-01-15T12:59:31.870Z,5.51
2017-01-15T13:00:31.886Z,5.33
2017-01-15T13:01:31.890Z,5.35
2017-01-15T13:02:31.908Z,5.35
2017-01-15T13:03:31.917Z,5.33
2017-01-15T13:04:31.931Z,5.32
2017-01-15T13:05:31.942Z,5.33
2017-01-15T13:06:31.953Z,5.33
2017-01-15T13:07:31.965Z,5.35
2017-01-15T13:08:31.971Z,5.36
2017-01-15T13:09:31.983Z,5.26
2017-01-15T13:10:32.001Z,5.29
2017-01-15T13:11:32.010Z,5.26
2017-01-15T13:12:32.022Z,5.32
2017-01-15T13:13:32.034Z,5.26
2017-01-15T13:14:32.044Z,5.32
2017-01-15T13:15:32.062Z,5.32
2017-01-15T13:16:32.070Z,5.29
2017-01-15T13:17:32.074Z,5.29
2017-01-15T13:18:32.093Z,5.38
2017-01-15T13:19:32.095Z,5.32
2017-01-15T13:20:32.112Z,5.36
2017-01-15T13:21:32.121Z,5.32
2017-01-15T13:22:32.199Z,5.33
2017-01-15T13:23:32.149Z,5.32